createdAt,value
2019-03-21T00:04:18.895Z,7.70
2019-03-21T00:08:37.998Z,7.70
2019-03-21T00:12:57.267Z,7.60
2019-03-21T00:17:17.511Z,7.60
2019-03-21T00:21:36.587Z,7.50
2019-03-21T00:25:55.660Z,7.50
2019-03-21T00:30:18.611Z,7.40
2019-03-21T00:34:38.169Z,7.40
2019-03-21T00:38:57.241Z,7.30
2019-03-21T00:43:16.327Z,7.30
2019-03-21T00:47:35.235Z,7.30
2019-03-21T00:51:54.214Z,7.20
2019-03-21T00:56:13.082Z,7.20
2019-03-21T01:00:36.856Z,7.10
2019-03-21T01:04:56.045Z,7.10
2019-03-21T01:09:16.192Z,7.00
2019-03-21T01:13:36.381Z,7.00
2019-03-21T01:17:55.564Z,7.00
2019-03-21T01:22:14.510Z,7.00
2019-03-21T01:26:33.416Z,6.90
2019-03-21T01:30:52.820Z,6.90
2019-03-21T01:35:12.168Z,6.90
2019-03-21T01:39:31.325Z,6.90
2019-03-21T01:43:50.348Z,6.80
2019-03-21T01:48:09.586Z,6.70
2019-03-21T01:52:28.975Z,6.70
2019-03-21T01:56:48.433Z,6.60
2019-03-21T02:01:08.836Z,6.60
2019-03-21T02:05:28.557Z,6.50
2019-03-21T02:09:47.707Z,6.50
2019-03-21T02:14:06.701Z,6.40
2019-03-21T02:18:25.714Z,6.40
2019-03-21T02:22:44.649Z,6.40
2019-03-21T02:27:04.083Z,6.30
2019-03-21T02:31:23.111Z,6.30
2019-03-21T02:35:42.435Z,6.20
2019-03-21T02:40:01.372Z,6.20
2019-03-21T02:44:20.406Z,6.20
2019-03-21T02:48:40.285Z,6.20
2019-03-21T02:53:00.308Z,6.10
2019-03-21T02:57:19.616Z,6.10
2019-03-21T03:01:38.520Z,6.10
2019-03-21T03:05:57.431Z,6.00
2019-03-21T03:10:20.364Z,6.00
2019-03-21T03:14:39.357Z,5.90
2019-03-21T03:18:58.304Z,5.90
2019-03-21T03:23:17.214Z,5.80
2019-03-21T03:27:36.253Z,5.80
2019-03-21T03:31:55.320Z,5.80
2019-03-21T03:36:15.040Z,5.80
2019-03-21T03:40:39.380Z,5.70
2019-03-21T03:44:58.421Z,5.70
2019-03-21T03:49:17.838Z,5.70
2019-03-21T03:53:36.888Z,5.60
2019-03-21T03:57:57.882Z,5.60
2019-03-21T04:02:16.878Z,5.50
2019-03-21T04:06:37.187Z,5.50
2019-03-21T04:10:56.185Z,5.40
2019-03-21T04:15:15.304Z,5.40
2019-03-21T04:19:35.708Z,5.30
2019-03-21T04:23:59.478Z,5.30
2019-03-21T04:28:17.430Z,5.30
2019-03-21T04:32:36.787Z,5.30
2019-03-21T04:36:55.841Z,5.20
2019-03-21T04:41:14.837Z,5.20
2019-03-21T04:45:33.740Z,5.20
2019-03-21T04:49:52.862Z,5.10
2019-03-21T04:54:14.248Z,5.10
2019-03-21T04:58:34.041Z,5.10
2019-03-21T05:02:54.763Z,5.10
2019-03-21T05:07:13.704Z,5.10
2019-03-21T05:11:32.573Z,5.00
2019-03-21T05:15:51.685Z,5.00
2019-03-21T05:20:14.576Z,4.90
2019-03-21T05:24:34.720Z,4.90
2019-03-21T05:28:53.683Z,4.80
2019-03-21T05:33:12.646Z,4.80
2019-03-21T05:37:31.564Z,4.80
2019-03-21T05:41:51.011Z,4.80
2019-03-21T05:46:10.061Z,4.80
2019-03-21T05:50:29.024Z,4.80
2019-03-21T05:54:48.160Z,4.70
2019-03-21T05:59:07.205Z,4.80
2019-03-21T06:03:30.832Z,4.80
2019-03-21T06:08:13.576Z,4.90
2019-03-21T06:12:31.625Z,4.90
2019-03-21T06:16:52.459Z,5.00
2019-03-21T06:21:53.440Z,5.10
2019-03-21T06:26:54.199Z,5.10
2019-03-21T06:31:13.152Z,5.20
2019-03-21T06:35:32.019Z,5.30
2019-03-21T06:39:51.004Z,5.40
2019-03-21T06:44:10.046Z,5.50
2019-03-21T06:48:29.066Z,5.60
2019-03-21T06:52:48.013Z,5.80
2019-03-21T06:57:07.439Z,6.10
2019-03-21T07:01:29.426Z,6.30
2019-03-21T07:05:48.800Z,6.40
2019-03-21T07:10:09.877Z,6.50
2019-03-21T07:14:30.616Z,6.50
2019-03-21T07:18:49.593Z,6.60
2019-03-21T07:23:08.520Z,6.70
2019-03-21T07:27:29.022Z,6.80
2019-03-21T07:31:48.624Z,6.90
2019-03-21T07:36:07.531Z,6.90
2019-03-21T07:40:27.416Z,7.10
2019-03-21T07:44:47.202Z,7.80
2019-03-21T07:49:07.523Z,8.90
2019-03-21T07:53:26.512Z,10.50
2019-03-21T07:57:45.700Z,12.30
2019-03-21T08:02:05.256Z,14.10
2019-03-21T08:06:24.460Z,15.60
2019-03-21T08:10:43.808Z,16.90
2019-03-21T08:15:02.726Z,18.10
2019-03-21T08:19:21.744Z,19.20
2019-03-21T08:23:41.136Z,20.20
2019-03-21T08:28:00.514Z,21.10
2019-03-21T08:32:19.974Z,21.90
2019-03-21T08:36:40.330Z,22.50
2019-03-21T08:40:59.441Z,23.10
2019-03-21T08:45:18.380Z,23.60
2019-03-21T08:49:37.341Z,23.80
2019-03-21T08:53:56.177Z,24.00
2019-03-21T08:58:15.433Z,24.30
2019-03-21T09:02:34.424Z,24.50
2019-03-21T09:06:53.445Z,25.00
2019-03-21T09:11:12.523Z,25.40
2019-03-21T09:15:31.496Z,25.80
2019-03-21T09:19:51.871Z,26.00
2019-03-21T09:24:10.895Z,26.30
2019-03-21T09:28:30.151Z,26.40
2019-03-21T09:32:49.704Z,26.60
2019-03-21T09:37:10.048Z,26.80
2019-03-21T09:41:29.093Z,27.00
2019-03-21T09:45:48.130Z,27.10
2019-03-21T09:50:08.346Z,27.30
2019-03-21T09:54:27.241Z,27.40
2019-03-21T09:58:46.378Z,27.60
2019-03-21T10:03:06.353Z,27.70
2019-03-21T10:07:25.333Z,27.90
2019-03-21T10:11:44.417Z,28.10
2019-03-21T10:16:03.511Z,28.20
2019-03-21T10:20:22.683Z,28.30
2019-03-21T10:24:41.841Z,28.20
2019-03-21T10:29:00.894Z,28.20
2019-03-21T10:33:20.230Z,27.90
2019-03-21T10:37:39.662Z,27.60
2019-03-21T10:41:58.556Z,27.50
2019-03-21T10:46:17.941Z,27.60
2019-03-21T10:50:39.121Z,27.80
2019-03-21T10:54:58.550Z,28.00
2019-03-21T10:59:17.626Z,28.10
2019-03-21T11:03:36.929Z,28.20
2019-03-21T11:07:56.554Z,28.20
2019-03-21T11:12:15.408Z,28.10
2019-03-21T11:16:35.228Z,28.10
2019-03-21T11:20:54.476Z,28.00
2019-03-21T11:25:13.402Z,28.00
2019-03-21T11:29:32.689Z,28.00
2019-03-21T11:33:52.257Z,28.00
2019-03-21T11:38:11.287Z,28.10
2019-03-21T11:42:30.178Z,28.20
2019-03-21T11:46:49.163Z,28.40
2019-03-21T11:51:08.161Z,28.50
2019-03-21T11:55:27.443Z,28.40
2019-03-21T11:59:52.522Z,28.20
2019-03-21T12:04:12.955Z,28.00
2019-03-21T12:08:31.932Z,27.90
2019-03-21T12:12:50.942Z,27.80
2019-03-21T12:17:12.712Z,27.80
2019-03-21T12:21:31.436Z,27.80
2019-03-21T12:25:50.420Z,27.70
2019-03-21T12:30:11.092Z,27.50
2019-03-21T12:34:30.450Z,27.20
2019-03-21T12:38:49.452Z,27.10
2019-03-21T12:43:09.878Z,27.00
2019-03-21T12:47:32.518Z,26.80
2019-03-21T12:51:51.833Z,26.40
2019-03-21T12:56:11.233Z,26.00
2019-03-21T13:00:42.477Z,25.60
2019-03-21T13:05:01.316Z,25.20
2019-03-21T13:09:20.440Z,24.90
2019-03-21T13:13:39.480Z,24.60
2019-03-21T13:18:00.388Z,24.30
2019-03-21T13:22:19.003Z,24.00
2019-03-21T13:26:38.572Z,23.70
2019-03-21T13:30:57.817Z,23.40
2019-03-21T13:35:17.306Z,23.10
2019-03-21T13:39:36.539Z,22.80
2019-03-21T13:43:55.996Z,22.50
2019-03-21T13:48:15.598Z,22.10
2019-03-21T13:52:35.210Z,21.90
2019-03-21T13:56:54.989Z,21.50
2019-03-21T14:01:14.005Z,21.30
2019-03-21T14:05:32.941Z,21.10
2019-03-21T14:09:52.025Z,21.00
2019-03-21T14:14:12.069Z,20.80
2019-03-21T14:18:30.992Z,20.70
2019-03-21T14:22:50.447Z,20.50
2019-03-21T14:27:09.756Z,20.40
2019-03-21T14:31:30.716Z,20.30
2019-03-21T14:35:49.996Z,20.20
2019-03-21T14:40:10.609Z,20.10
2019-03-21T14:44:30.133Z,20.00
2019-03-21T14:48:49.610Z,19.90
2019-03-21T14:53:08.585Z,19.80
2019-03-21T14:57:27.657Z,19.70
2019-03-21T15:01:46.653Z,19.60
2019-03-21T15:06:06.817Z,19.50
2019-03-21T15:10:25.914Z,19.50
2019-03-21T15:14:44.840Z,19.40
2019-03-21T15:19:04.305Z,19.30
2019-03-21T15:23:25.871Z,19.20
2019-03-21T15:27:44.522Z,19.10
2019-03-21T15:32:04.102Z,19.00
2019-03-21T15:36:23.747Z,18.90
2019-03-21T15:40:42.813Z,18.80
2019-03-21T15:45:15.331Z,18.70
2019-03-21T15:49:25.709Z,18.70
2019-03-21T15:53:54.662Z,18.60
2019-03-21T15:58:06.285Z,18.50
2019-03-21T16:02:25.652Z,18.50
2019-03-21T16:06:46.823Z,18.40
2019-03-21T16:11:07.862Z,18.30
2019-03-21T16:15:27.239Z,18.20
2019-03-21T16:19:48.403Z,18.20
2019-03-21T16:24:07.709Z,18.10
2019-03-21T16:28:26.659Z,18.00
2019-03-21T16:32:46.251Z,17.90
2019-03-21T16:37:06.108Z,17.90
2019-03-21T16:41:25.160Z,17.80
2019-03-21T16:45:44.080Z,17.80
2019-03-21T16:50:03.746Z,17.70
2019-03-21T16:54:24.526Z,17.60
2019-03-21T16:58:44.758Z,17.50
2019-03-21T17:03:06.446Z,17.50
2019-03-21T17:07:25.597Z,17.40
2019-03-21T17:11:45.078Z,17.30
2019-03-21T17:16:05.806Z,17.20
2019-03-21T17:20:25.324Z,17.10
2019-03-21T17:24:44.531Z,17.00
2019-03-21T17:29:03.578Z,16.90
2019-03-21T17:33:23.305Z,16.80
2019-03-21T17:37:42.332Z,16.70
2019-03-21T17:42:01.347Z,16.60
2019-03-21T17:52:31.394Z,16.30
2019-03-21T17:56:51.605Z,16.10
2019-03-21T18:01:10.829Z,16.00
2019-03-21T18:05:29.973Z,15.80
2019-03-21T18:09:49.100Z,15.70
2019-03-21T18:14:08.634Z,15.60
2019-03-21T18:18:27.942Z,15.50
2019-03-21T18:22:47.059Z,15.30
2019-03-21T18:27:13.776Z,15.20
2019-03-21T18:31:32.933Z,15.10
2019-03-21T18:35:52.468Z,15.00
2019-03-21T18:40:13.406Z,14.80
2019-03-21T18:44:33.591Z,14.70
2019-03-21T18:48:55.678Z,14.60
2019-03-21T18:53:14.818Z,14.50
2019-03-21T18:57:34.664Z,14.40
2019-03-21T19:01:58.744Z,14.30
2019-03-21T19:06:16.286Z,14.20
2019-03-21T19:10:35.277Z,14.10
2019-03-21T19:14:54.415Z,14.00
2019-03-21T19:19:13.800Z,14.00
2019-03-21T19:23:33.433Z,13.90
2019-03-21T19:27:52.569Z,13.80
2019-03-21T19:32:12.444Z,13.70
2019-03-21T19:36:31.470Z,13.60
2019-03-21T19:40:50.687Z,13.50
2019-03-21T19:45:12.258Z,13.50
2019-03-21T19:49:31.685Z,13.40
2019-03-21T19:53:51.000Z,13.30
2019-03-21T19:58:11.384Z,13.20
2019-03-21T20:02:30.386Z,13.20
2019-03-21T20:06:49.503Z,13.10
2019-03-21T20:11:08.548Z,13.10
2019-03-21T20:15:30.023Z,13.00
2019-03-21T20:19:48.934Z,13.00
2019-03-21T20:24:08.007Z,13.00
2019-03-21T20:28:27.611Z,12.90
2019-03-21T20:32:47.208Z,13.10
2019-03-21T20:37:06.210Z,12.80
2019-03-21T20:41:25.081Z,12.70
2019-03-21T20:45:44.312Z,12.60
2019-03-21T20:50:03.295Z,12.50
2019-03-21T20:54:22.749Z,12.40
2019-03-21T20:58:42.406Z,12.40
2019-03-21T21:03:01.512Z,12.40
2019-03-21T21:07:21.717Z,12.30
2019-03-21T21:11:41.253Z,12.20
2019-03-21T21:16:00.161Z,11.80
2019-03-21T21:20:19.411Z,12.10
2019-03-21T21:24:38.358Z,12.00
2019-03-21T21:28:59.403Z,11.90
2019-03-21T21:33:18.894Z,11.80
2019-03-21T21:37:38.614Z,11.70
2019-03-21T21:41:57.718Z,11.60
2019-03-21T21:46:17.077Z,11.60
2019-03-21T21:50:37.278Z,11.50
2019-03-21T21:54:56.230Z,11.50
2019-03-21T21:59:15.300Z,11.30
2019-03-21T22:03:34.437Z,11.30
2019-03-21T22:07:55.262Z,11.20
2019-03-21T22:12:14.392Z,11.20
2019-03-21T22:16:34.539Z,11.10
2019-03-21T22:21:03.789Z,11.00
2019-03-21T22:25:23.182Z,11.00
2019-03-21T22:29:42.538Z,10.90
2019-03-21T22:34:01.619Z,10.90
2019-03-21T22:38:21.131Z,10.80
2019-03-21T22:42:41.332Z,10.80
2019-03-21T22:47:00.220Z,10.70
2019-03-21T22:51:19.719Z,10.70
2019-03-21T22:55:38.608Z,10.60
2019-03-21T22:59:57.893Z,10.50
2019-03-21T23:04:17.720Z,10.50
2019-03-21T23:08:36.801Z,10.50
2019-03-21T23:12:55.974Z,10.50
2019-03-21T23:17:14.910Z,10.40
2019-03-21T23:21:33.890Z,10.40
2019-03-21T23:25:53.198Z,10.30
2019-03-21T23:30:14.785Z,10.30
2019-03-21T23:34:34.147Z,10.20
2019-03-21T23:38:53.278Z,10.10
2019-03-21T23:43:12.275Z,10.10
2019-03-21T23:47:31.215Z,10.00
2019-03-21T23:51:50.156Z,10.00
2019-03-21T23:56:09.498Z,10.00
